CheckWX is a tool to help pilots better visualize weather data.  It is not intended as a substitute for an official pre-flight weather briefing.

12:38:45 UTC

KLNS METAR
Lancaster Airport
Lancaster, Pennsylvania, USA
Current

46 mins ago

KLNS 051153Z 00000KT 8SM CLR 09/06 A3007 RMK AO2 SLP182 T00890061 10106 20078 53012
Observed
Apr-5 @ 11:53 UTC
Visibility
Flight Rules
VFR
Cloud Levels
  • Clear skies
Temperature
C / 48°F
Dewpoint
C / 43°F
Humidity
82%
Altimeter
30.07" Hg
Pressure
1018.32 hPa
Previous

2 hours ago

KLNS 051053Z 00000KT 9SM CLR 08/06 A3005 RMK AO2 SLP176 T00830061
Observed
Apr-5 @ 10:53 UTC
Visibility
Flight Rules
VFR
Cloud Levels
  • Clear skies
Temperature
C / 46°F
Dewpoint
C / 43°F
Humidity
87%
Altimeter
30.05" Hg
Pressure
1017.62 hPa
Previous

3 hours ago

KLNS 050953Z 00000KT 9SM FEW055 09/06 A3003 RMK AO2 SLP171 T00890056
Observed
Apr-5 @ 09:53 UTC
Visibility
Flight Rules
VFR
Cloud Levels
  • Few at 5,500' AGL
Temperature
C / 48°F
Dewpoint
C / 43°F
Humidity
82%
Altimeter
30.03" Hg
Pressure
1016.92 hPa